createdAt,value
2019-03-22T00:02:00.294Z,1.00
2019-03-22T00:04:31.880Z,1.10
2019-03-22T00:07:02.683Z,1.10
2019-03-22T00:09:33.390Z,1.10
2019-03-22T00:12:04.462Z,1.10
2019-03-22T00:14:36.928Z,1.00
2019-03-22T00:17:07.356Z,1.10
2019-03-22T00:19:37.848Z,1.10
2019-03-22T00:22:08.995Z,1.10
2019-03-22T00:24:40.368Z,1.10
2019-03-22T00:27:16.509Z,1.00
2019-03-22T00:29:43.356Z,1.00
2019-03-22T00:32:13.877Z,1.00
2019-03-22T00:34:44.596Z,1.00
2019-03-22T00:37:17.227Z,1.00
2019-03-22T00:39:48.164Z,1.00
2019-03-22T00:42:18.564Z,1.00
2019-03-22T00:44:49.647Z,1.00
2019-03-22T00:47:20.123Z,0.90
2019-03-22T00:49:50.489Z,0.80
2019-03-22T00:52:21.151Z,0.80
2019-03-22T00:54:52.199Z,0.70
2019-03-22T00:57:28.437Z,0.80
2019-03-22T00:59:55.991Z,0.70
2019-03-22T01:02:26.546Z,0.70
2019-03-22T01:04:57.809Z,0.70
2019-03-22T01:07:28.202Z,0.70
2019-03-22T01:09:58.989Z,0.70
2019-03-22T01:12:29.338Z,0.70
2019-03-22T01:14:59.751Z,0.80
2019-03-22T01:17:30.367Z,0.70
2019-03-22T01:20:00.739Z,0.70
2019-03-22T01:22:31.101Z,0.70
2019-03-22T01:25:01.485Z,0.70
2019-03-22T01:27:40.278Z,0.70
2019-03-22T01:30:04.456Z,0.70
2019-03-22T01:32:34.852Z,0.70
2019-03-22T01:35:05.712Z,0.80
2019-03-22T01:37:36.066Z,0.80
2019-03-22T01:40:07.998Z,0.80
2019-03-22T01:42:38.935Z,0.70
2019-03-22T01:45:11.886Z,0.70
2019-03-22T01:47:42.254Z,0.70
2019-03-22T01:50:14.036Z,0.60
2019-03-22T01:52:44.612Z,0.60
2019-03-22T01:55:15.299Z,0.50
2019-03-22T01:57:53.027Z,0.50
2019-03-22T02:00:17.890Z,0.40
2019-03-22T02:02:48.401Z,0.40
2019-03-22T02:05:19.371Z,0.40
2019-03-22T02:07:50.102Z,0.30
2019-03-22T02:10:23.350Z,0.30
2019-03-22T02:12:55.339Z,0.40
2019-03-22T02:15:25.678Z,0.40
2019-03-22T02:17:55.978Z,0.50
2019-03-22T02:20:26.348Z,0.50
2019-03-22T02:22:57.068Z,0.50
2019-03-22T02:25:27.469Z,0.60
2019-03-22T02:28:04.048Z,0.60
2019-03-22T02:30:29.811Z,0.60
2019-03-22T02:33:00.778Z,0.60
2019-03-22T02:35:31.431Z,0.60
2019-03-22T02:38:02.417Z,0.60
2019-03-22T02:40:33.497Z,0.60
2019-03-22T02:43:03.975Z,0.60
2019-03-22T02:45:34.370Z,0.60
2019-03-22T02:48:04.847Z,0.60
2019-03-22T02:50:35.227Z,0.60
2019-03-22T02:53:05.730Z,0.70
2019-03-22T02:55:36.073Z,0.60
2019-03-22T02:58:19.901Z,0.60
2019-03-22T03:00:38.964Z,0.60
2019-03-22T03:03:11.131Z,0.50
2019-03-22T03:05:41.512Z,0.50
2019-03-22T03:08:11.957Z,0.40
2019-03-22T03:10:43.024Z,0.30
2019-03-22T03:13:14.092Z,0.40
2019-03-22T03:15:44.453Z,0.30
2019-03-22T03:18:15.275Z,0.20
2019-03-22T03:20:45.644Z,0.20
2019-03-22T03:23:17.215Z,0.20
2019-03-22T03:25:47.614Z,0.20
2019-03-22T03:28:17.996Z,0.20
2019-03-22T03:30:48.371Z,0.20
2019-03-22T03:33:19.280Z,0.00
2019-03-22T03:35:50.555Z,-0.10
2019-03-22T03:38:21.074Z,-0.20
2019-03-22T03:40:51.796Z,-0.30
2019-03-22T03:43:22.767Z,-0.30
2019-03-22T03:45:53.751Z,-0.30
2019-03-22T03:48:26.417Z,-0.40
2019-03-22T03:50:57.396Z,-0.40
2019-03-22T03:53:27.811Z,-0.40
2019-03-22T03:55:58.602Z,-0.40
2019-03-22T03:58:29.470Z,-0.50
2019-03-22T04:00:59.857Z,-0.50
2019-03-22T04:03:30.314Z,-0.50
2019-03-22T04:06:01.179Z,-0.50
2019-03-22T04:08:31.615Z,-0.50
2019-03-22T04:11:02.069Z,-0.50
2019-03-22T04:13:32.504Z,-0.50
2019-03-22T04:16:02.924Z,-0.60
2019-03-22T04:18:33.383Z,-0.60
2019-03-22T04:21:04.557Z,-0.60
2019-03-22T04:23:35.013Z,-0.60
2019-03-22T04:26:05.551Z,-0.60
2019-03-22T04:28:36.256Z,-0.60
2019-03-22T04:31:06.660Z,-0.70
2019-03-22T04:33:37.440Z,-0.70
2019-03-22T04:36:07.928Z,-0.70
2019-03-22T04:38:38.730Z,-0.70
2019-03-22T04:41:09.222Z,-0.70
2019-03-22T04:43:40.172Z,-0.80
2019-03-22T04:46:13.890Z,-0.60
2019-03-22T04:48:44.964Z,-0.60
2019-03-22T04:51:15.808Z,-0.60
2019-03-22T04:53:56.323Z,-0.70
2019-03-22T04:56:27.214Z,-0.70
2019-03-22T04:59:01.723Z,-0.80
2019-03-22T05:01:33.622Z,-0.80
2019-03-22T05:04:06.275Z,-0.90
2019-03-22T05:06:41.379Z,-0.80
2019-03-22T05:09:14.582Z,-0.80
2019-03-22T05:11:47.782Z,-0.80
2019-03-22T05:14:20.478Z,-0.70
2019-03-22T05:16:53.589Z,-0.70
2019-03-22T05:19:27.664Z,-0.50
2019-03-22T05:22:00.760Z,-0.60
2019-03-22T05:24:33.994Z,-0.60
2019-03-22T05:27:05.600Z,-0.50
2019-03-22T05:29:38.891Z,-0.50
2019-03-22T05:32:19.772Z,-0.50
2019-03-22T05:34:53.111Z,-0.50
2019-03-22T05:37:23.845Z,-0.50
2019-03-22T05:39:54.660Z,-0.50
2019-03-22T05:42:25.608Z,-0.50
2019-03-22T05:44:56.913Z,-0.50
2019-03-22T05:47:27.292Z,-0.50
2019-03-22T05:49:57.700Z,-0.50
2019-03-22T05:52:28.094Z,-0.50
2019-03-22T05:54:58.751Z,-0.40
2019-03-22T05:57:29.515Z,-0.20
2019-03-22T06:00:00.687Z,-0.10
2019-03-22T06:02:32.321Z,0.00
2019-03-22T06:05:02.698Z,0.00
2019-03-22T06:07:33.119Z,0.20
2019-03-22T06:10:04.082Z,0.40
2019-03-22T06:12:34.591Z,0.60
2019-03-22T06:15:06.284Z,0.90
2019-03-22T06:17:37.019Z,1.10
2019-03-22T06:20:08.212Z,1.40
2019-03-22T06:22:38.669Z,1.80
2019-03-22T06:25:09.565Z,2.10
2019-03-22T06:27:40.019Z,2.60
2019-03-22T06:30:10.979Z,3.00
2019-03-22T06:32:42.102Z,3.50
2019-03-22T06:35:12.578Z,3.80
2019-03-22T06:37:42.954Z,4.30
2019-03-22T06:40:14.327Z,4.70
2019-03-22T06:42:44.726Z,4.80
2019-03-22T06:45:15.263Z,4.80
2019-03-22T06:47:45.985Z,4.90
2019-03-22T06:50:17.290Z,5.00
2019-03-22T06:52:47.754Z,5.20
2019-03-22T06:55:18.160Z,5.30
2019-03-22T06:57:49.088Z,5.40
2019-03-22T07:00:19.500Z,5.60
2019-03-22T07:02:49.911Z,5.60
2019-03-22T07:05:20.625Z,5.80
2019-03-22T07:07:51.484Z,6.00
2019-03-22T07:10:23.084Z,6.00
2019-03-22T07:12:53.432Z,6.10
2019-03-22T07:15:24.526Z,6.30
2019-03-22T07:17:55.293Z,6.40
2019-03-22T07:20:26.131Z,6.60
2019-03-22T07:22:56.970Z,6.70
2019-03-22T07:25:27.403Z,6.70
2019-03-22T07:27:58.688Z,6.90
2019-03-22T07:30:29.489Z,7.10
2019-03-22T07:33:00.176Z,7.20
2019-03-22T07:35:30.531Z,7.40
2019-03-22T07:38:03.374Z,7.80
2019-03-22T07:40:34.101Z,8.10
2019-03-22T07:43:07.062Z,8.30
2019-03-22T07:45:37.565Z,8.20
2019-03-22T07:48:11.242Z,7.90
2019-03-22T07:50:41.599Z,8.00
2019-03-22T07:53:12.433Z,8.00
2019-03-22T07:55:43.140Z,8.40
2019-03-22T07:58:13.631Z,8.90
2019-03-22T08:00:44.451Z,9.30
2019-03-22T08:03:15.258Z,9.40
2019-03-22T08:05:50.783Z,9.60
2019-03-22T08:08:24.823Z,9.50
2019-03-22T08:10:55.237Z,9.50
2019-03-22T08:13:26.053Z,9.50
2019-03-22T08:15:57.811Z,9.70
2019-03-22T08:18:28.253Z,10.00
2019-03-22T08:21:00.740Z,10.00
2019-03-22T08:23:31.644Z,10.10
2019-03-22T08:26:02.557Z,10.30
2019-03-22T08:28:33.043Z,10.30
2019-03-22T08:31:05.583Z,10.40
2019-03-22T08:33:36.398Z,10.40
2019-03-22T08:36:07.885Z,10.50
2019-03-22T08:38:39.521Z,11.20
2019-03-22T08:41:10.762Z,11.30
2019-03-22T08:43:41.156Z,11.10
2019-03-22T08:46:11.939Z,11.50
2019-03-22T08:48:42.418Z,11.60
2019-03-22T08:51:13.082Z,11.80
2019-03-22T08:53:54.658Z,11.60
2019-03-22T08:56:16.837Z,11.30
2019-03-22T08:58:47.384Z,11.10
2019-03-22T09:01:17.874Z,10.90
2019-03-22T09:03:48.568Z,11.00
2019-03-22T09:06:18.986Z,10.70
2019-03-22T09:08:49.943Z,10.60
2019-03-22T09:11:21.001Z,10.70
2019-03-22T09:13:53.746Z,10.70
2019-03-22T09:16:24.545Z,10.90
2019-03-22T09:19:01.000Z,11.00
2019-03-22T09:21:32.469Z,11.20
2019-03-22T09:24:02.886Z,11.30
2019-03-22T09:26:33.589Z,11.40
2019-03-22T09:29:03.952Z,11.40
2019-03-22T09:31:34.314Z,11.30
2019-03-22T09:34:05.404Z,11.10
2019-03-22T09:36:35.832Z,11.30
2019-03-22T09:39:09.148Z,11.00
2019-03-22T09:41:41.449Z,11.30
2019-03-22T09:44:13.028Z,11.50
2019-03-22T09:46:43.888Z,11.40
2019-03-22T09:49:15.193Z,11.30
2019-03-22T09:51:45.862Z,11.30
2019-03-22T09:54:16.268Z,11.40
2019-03-22T09:56:47.587Z,11.40
2019-03-22T09:59:18.251Z,11.40
2019-03-22T10:01:48.601Z,11.50
2019-03-22T10:04:19.315Z,11.40
2019-03-22T10:06:50.850Z,11.40
2019-03-22T10:09:24.597Z,11.70
2019-03-22T10:11:56.079Z,11.70
2019-03-22T10:14:26.478Z,11.70
2019-03-22T10:16:57.202Z,11.90
2019-03-22T10:19:28.302Z,11.90
2019-03-22T10:21:59.174Z,11.90
2019-03-22T10:24:29.763Z,11.80
2019-03-22T10:27:00.568Z,11.90
2019-03-22T10:29:31.956Z,12.00
2019-03-22T10:32:03.621Z,11.90
2019-03-22T10:34:34.399Z,11.80
2019-03-22T10:37:04.719Z,12.00
2019-03-22T10:39:35.047Z,12.00
2019-03-22T10:42:05.432Z,12.20
2019-03-22T10:44:36.153Z,12.20
2019-03-22T10:47:08.422Z,12.50
2019-03-22T10:49:41.806Z,12.40
2019-03-22T10:52:11.066Z,12.50
2019-03-22T10:54:41.831Z,12.70
2019-03-22T10:57:12.149Z,12.40
2019-03-22T10:59:43.023Z,12.00
2019-03-22T11:02:13.963Z,12.00
2019-03-22T11:04:45.722Z,12.20
2019-03-22T11:07:16.443Z,12.20
2019-03-22T11:09:46.830Z,12.40
2019-03-22T11:12:19.293Z,12.50
2019-03-22T11:14:50.595Z,12.60
2019-03-22T11:17:21.371Z,12.80
2019-03-22T11:19:52.039Z,12.80
2019-03-22T11:22:22.646Z,12.80
2019-03-22T11:24:53.930Z,12.80
2019-03-22T11:27:24.474Z,12.80
2019-03-22T11:29:55.226Z,12.70
2019-03-22T11:32:25.807Z,12.70
2019-03-22T11:34:56.137Z,12.90
2019-03-22T11:37:26.488Z,12.90
2019-03-22T11:40:00.489Z,12.90
2019-03-22T11:42:31.002Z,13.00
2019-03-22T11:45:01.704Z,13.10
2019-03-22T11:47:32.207Z,13.20
2019-03-22T11:50:02.917Z,13.20
2019-03-22T11:52:33.825Z,13.20
2019-03-22T11:55:05.156Z,13.30
2019-03-22T11:57:35.934Z,13.40
2019-03-22T12:00:13.893Z,13.20
2019-03-22T12:02:44.372Z,13.50
2019-03-22T12:05:15.753Z,13.40
2019-03-22T12:07:46.656Z,13.60
2019-03-22T12:10:17.924Z,13.70
2019-03-22T12:12:48.982Z,13.80
2019-03-22T12:15:20.225Z,13.90
2019-03-22T12:17:50.813Z,14.10
2019-03-22T12:20:21.886Z,14.10
2019-03-22T12:22:52.387Z,14.20
2019-03-22T12:25:23.227Z,14.10
2019-03-22T12:27:54.157Z,14.20
2019-03-22T12:30:24.712Z,14.40
2019-03-22T12:32:55.457Z,14.50
2019-03-22T12:35:26.399Z,14.70
2019-03-22T12:37:57.814Z,14.80
2019-03-22T12:40:28.511Z,14.90
2019-03-22T12:42:59.363Z,14.80
2019-03-22T12:45:30.876Z,14.70
2019-03-22T12:48:01.953Z,14.80
2019-03-22T12:50:32.855Z,14.70
2019-03-22T12:53:03.353Z,14.70
2019-03-22T12:55:34.703Z,14.80
2019-03-22T12:58:08.353Z,15.00
2019-03-22T13:00:39.322Z,15.10
2019-03-22T13:03:10.715Z,15.20
2019-03-22T13:05:41.666Z,15.30
2019-03-22T13:08:12.874Z,15.10
2019-03-22T13:10:43.386Z,15.10
2019-03-22T13:13:14.336Z,15.20
2019-03-22T13:15:44.698Z,15.00
2019-03-22T13:18:15.763Z,15.00
2019-03-22T13:20:46.982Z,15.10
2019-03-22T13:23:17.953Z,15.10
2019-03-22T13:25:48.406Z,15.10
2019-03-22T13:28:18.883Z,15.20
2019-03-22T13:30:50.651Z,14.90
2019-03-22T13:33:22.134Z,15.00
2019-03-22T13:35:53.373Z,15.10
2019-03-22T13:38:24.470Z,15.20
2019-03-22T13:40:54.854Z,15.10
2019-03-22T13:43:25.722Z,15.00
2019-03-22T13:45:56.599Z,14.90
2019-03-22T13:48:27.440Z,14.90
2019-03-22T13:50:57.755Z,15.00
2019-03-22T13:53:29.038Z,15.00
2019-03-22T13:56:00.072Z,15.00
2019-03-22T13:58:30.433Z,15.10
2019-03-22T14:01:02.072Z,15.10
2019-03-22T14:03:33.286Z,15.20
2019-03-22T14:06:04.524Z,15.40
2019-03-22T14:08:35.363Z,15.60
2019-03-22T14:11:06.925Z,15.70
2019-03-22T14:13:39.670Z,15.30
2019-03-22T14:16:09.888Z,15.20
2019-03-22T14:18:41.235Z,15.30
2019-03-22T14:21:11.949Z,15.20
2019-03-22T14:23:42.747Z,15.00
2019-03-22T14:26:13.497Z,15.00
2019-03-22T14:28:43.834Z,15.10
2019-03-22T14:31:14.790Z,15.30
2019-03-22T14:33:45.732Z,15.40
2019-03-22T14:36:16.250Z,15.60
2019-03-22T14:38:47.254Z,15.80
2019-03-22T14:41:17.662Z,15.70
2019-03-22T14:43:48.110Z,15.70
2019-03-22T14:46:18.850Z,15.50
2019-03-22T14:48:49.689Z,15.50
2019-03-22T14:51:20.320Z,15.60
2019-03-22T14:53:50.697Z,15.60
2019-03-22T14:56:21.082Z,15.80
2019-03-22T14:58:52.525Z,16.00
2019-03-22T15:01:22.823Z,16.00
2019-03-22T15:03:53.132Z,15.80
2019-03-22T15:06:24.396Z,15.60
2019-03-22T15:08:56.968Z,15.40
2019-03-22T15:11:27.721Z,15.20
2019-03-22T15:14:04.001Z,15.10
2019-03-22T15:16:56.895Z,14.80
2019-03-22T15:19:44.974Z,14.70
2019-03-22T15:22:40.042Z,14.70
2019-03-22T15:25:44.407Z,14.70
2019-03-22T15:28:37.019Z,14.60
2019-03-22T15:31:32.651Z,14.70
2019-03-22T15:34:27.419Z,14.60
2019-03-22T15:37:22.124Z,14.60
2019-03-22T15:40:00.755Z,14.60
2019-03-22T15:42:31.987Z,14.60
2019-03-22T15:45:03.626Z,14.70
2019-03-22T15:47:34.107Z,14.60
2019-03-22T15:50:04.650Z,14.60
2019-03-22T15:52:35.998Z,14.60
2019-03-22T15:55:08.710Z,14.50
2019-03-22T15:57:39.712Z,14.50
2019-03-22T16:00:13.238Z,14.50
2019-03-22T16:02:44.338Z,14.40
2019-03-22T16:05:15.426Z,14.40
2019-03-22T16:07:45.885Z,14.30
2019-03-22T16:10:16.277Z,14.20
2019-03-22T16:12:46.975Z,14.10
2019-03-22T16:15:18.316Z,14.00
2019-03-22T16:17:49.090Z,13.90
2019-03-22T16:20:21.749Z,13.80
2019-03-22T16:22:52.281Z,13.70
2019-03-22T16:25:23.842Z,13.60
2019-03-22T16:27:54.801Z,13.50
2019-03-22T16:30:26.207Z,13.30
2019-03-22T16:32:56.656Z,13.20
2019-03-22T16:35:28.240Z,13.10
2019-03-22T16:37:59.711Z,13.00
2019-03-22T16:40:31.150Z,12.90
2019-03-22T16:43:01.888Z,12.90
2019-03-22T16:45:43.108Z,12.80
2019-03-22T16:48:13.608Z,12.60
2019-03-22T16:50:44.078Z,12.50
2019-03-22T16:53:14.759Z,12.40
2019-03-22T16:55:45.962Z,12.20
2019-03-22T16:58:16.416Z,12.10
2019-03-22T17:00:49.751Z,12.00
2019-03-22T17:03:20.159Z,11.90
2019-03-22T17:05:50.736Z,11.80
2019-03-22T17:08:23.702Z,11.70
2019-03-22T17:10:54.505Z,11.50
2019-03-22T17:13:24.955Z,11.40
2019-03-22T17:15:55.959Z,11.20
2019-03-22T17:18:26.531Z,11.10
2019-03-22T17:20:57.467Z,11.00
2019-03-22T17:23:28.833Z,10.90
2019-03-22T17:25:59.636Z,10.80
2019-03-22T17:28:30.026Z,10.70
2019-03-22T17:31:01.066Z,10.50
2019-03-22T17:33:32.732Z,10.40
2019-03-22T17:36:03.620Z,10.40
2019-03-22T17:38:34.311Z,10.30
2019-03-22T17:41:04.930Z,10.20
2019-03-22T17:43:35.692Z,10.00
2019-03-22T17:46:06.778Z,9.90
2019-03-22T17:48:37.867Z,9.80
2019-03-22T17:51:09.497Z,9.70
2019-03-22T17:53:40.728Z,9.60
2019-03-22T17:56:12.259Z,9.50
2019-03-22T17:58:43.539Z,9.30
2019-03-22T18:01:14.315Z,9.30
2019-03-22T18:03:45.282Z,9.20
2019-03-22T18:06:16.485Z,9.00
2019-03-22T18:08:46.900Z,9.00
2019-03-22T18:11:18.155Z,8.90
2019-03-22T18:13:48.577Z,8.80
2019-03-22T18:16:18.952Z,8.70
2019-03-22T18:18:49.848Z,8.60
2019-03-22T18:21:20.246Z,8.50
2019-03-22T18:23:51.710Z,8.40
2019-03-22T18:26:22.841Z,8.30
2019-03-22T18:28:53.326Z,8.30
2019-03-22T18:31:25.217Z,8.20
2019-03-22T18:33:56.483Z,8.10
2019-03-22T18:36:27.287Z,8.00
2019-03-22T18:38:58.214Z,7.90
2019-03-22T18:41:28.607Z,7.90
2019-03-22T18:43:59.520Z,7.80
2019-03-22T18:46:29.886Z,7.70
2019-03-22T18:49:00.264Z,7.70
2019-03-22T18:51:30.958Z,7.60
2019-03-22T18:54:01.859Z,7.60
2019-03-22T18:56:32.266Z,7.50
2019-03-22T18:59:02.688Z,7.40
2019-03-22T19:01:33.419Z,7.40
2019-03-22T19:04:04.338Z,7.40
2019-03-22T19:06:34.695Z,7.30
2019-03-22T19:09:07.458Z,7.30
2019-03-22T19:11:38.654Z,7.20
2019-03-22T19:14:09.437Z,7.20
2019-03-22T19:16:40.966Z,7.20
2019-03-22T19:19:11.876Z,7.20
2019-03-22T19:21:42.879Z,7.10
2019-03-22T19:24:16.490Z,7.10
2019-03-22T19:26:47.687Z,7.00
2019-03-22T19:29:22.149Z,7.00
2019-03-22T19:31:54.079Z,6.90
2019-03-22T19:34:27.571Z,6.90
2019-03-22T19:37:00.817Z,6.80
2019-03-22T19:39:34.450Z,6.70
2019-03-22T19:42:06.618Z,6.60
2019-03-22T19:44:38.036Z,6.50
2019-03-22T19:47:12.898Z,6.40
2019-03-22T19:49:45.703Z,6.30
2019-03-22T19:52:18.119Z,6.20
2019-03-22T19:54:50.066Z,6.20
2019-03-22T19:57:23.090Z,6.20
2019-03-22T19:59:54.781Z,6.00
2019-03-22T20:02:26.954Z,6.00
2019-03-22T20:05:04.713Z,5.90
2019-03-22T20:07:36.402Z,5.90
2019-03-22T20:10:10.885Z,5.80
2019-03-22T20:12:43.878Z,5.80
2019-03-22T20:15:16.460Z,5.70
2019-03-22T20:17:48.296Z,5.70
2019-03-22T20:20:22.762Z,5.70
2019-03-22T20:22:57.953Z,5.60
2019-03-22T20:25:31.990Z,5.60
2019-03-22T20:28:04.480Z,5.50
2019-03-22T20:30:35.903Z,5.50
2019-03-22T20:33:11.213Z,5.50
2019-03-22T20:35:43.367Z,5.40
2019-03-22T20:38:15.647Z,5.40
2019-03-22T20:40:48.044Z,5.40
2019-03-22T20:43:21.179Z,5.40
2019-03-22T20:45:53.207Z,5.30
2019-03-22T20:48:24.439Z,5.30
2019-03-22T20:50:57.813Z,5.30
2019-03-22T20:53:29.039Z,5.30
2019-03-22T20:56:01.570Z,5.30
2019-03-22T20:58:34.684Z,5.20
2019-03-22T21:01:05.991Z,5.20
2019-03-22T21:03:38.026Z,5.20
2019-03-22T21:06:08.430Z,5.20
2019-03-22T21:08:39.682Z,5.20
2019-03-22T21:11:11.391Z,5.10
2019-03-22T21:13:42.155Z,5.10
2019-03-22T21:16:15.884Z,5.10
2019-03-22T21:18:46.311Z,5.10
2019-03-22T21:21:17.033Z,5.00
2019-03-22T21:23:48.105Z,5.00
2019-03-22T21:26:23.558Z,5.00
2019-03-22T21:28:55.487Z,4.90
2019-03-22T21:31:26.815Z,4.90
2019-03-22T21:33:58.163Z,4.90
2019-03-22T21:36:30.570Z,4.80
2019-03-22T21:39:01.631Z,4.80
2019-03-22T21:41:32.842Z,4.70
2019-03-22T21:44:05.155Z,4.60
2019-03-22T21:46:37.541Z,4.60
2019-03-22T21:49:08.816Z,4.50
2019-03-22T21:51:40.087Z,4.40
2019-03-22T21:54:11.453Z,4.50
2019-03-22T21:56:43.225Z,4.50
2019-03-22T21:59:14.747Z,4.50
2019-03-22T22:01:46.567Z,4.40
2019-03-22T22:04:18.170Z,4.40
2019-03-22T22:06:49.719Z,4.40
2019-03-22T22:09:22.588Z,4.40
2019-03-22T22:11:53.207Z,4.30
2019-03-22T22:14:27.542Z,4.30
2019-03-22T22:16:58.228Z,4.30
2019-03-22T22:19:30.165Z,4.30
2019-03-22T22:22:00.921Z,4.20
2019-03-22T22:24:31.689Z,4.20
2019-03-22T22:27:13.232Z,4.10
2019-03-22T22:29:36.487Z,4.10
2019-03-22T22:32:07.337Z,4.20
2019-03-22T22:34:38.938Z,4.20
2019-03-22T22:37:09.987Z,4.20
2019-03-22T22:39:41.214Z,4.20
2019-03-22T22:42:12.508Z,4.10
2019-03-22T22:44:43.222Z,4.10
2019-03-22T22:47:14.187Z,4.10
2019-03-22T22:49:44.923Z,4.10
2019-03-22T22:52:15.705Z,4.00
2019-03-22T22:54:47.966Z,4.00
2019-03-22T22:57:19.553Z,3.90
2019-03-22T22:59:50.563Z,3.90
2019-03-22T23:02:22.219Z,3.90
2019-03-22T23:04:53.293Z,3.90
2019-03-22T23:07:26.315Z,3.90
2019-03-22T23:09:57.451Z,3.90
2019-03-22T23:12:27.927Z,3.90
2019-03-22T23:14:58.342Z,3.90
2019-03-22T23:17:29.055Z,4.00
2019-03-22T23:19:59.996Z,3.90
2019-03-22T23:22:30.871Z,3.90
2019-03-22T23:25:02.769Z,3.90
2019-03-22T23:27:33.210Z,3.90
2019-03-22T23:30:04.655Z,3.90
2019-03-22T23:32:35.099Z,3.80
2019-03-22T23:35:05.609Z,3.80
2019-03-22T23:37:36.135Z,3.90
2019-03-22T23:40:07.895Z,3.80
2019-03-22T23:42:38.305Z,3.80
2019-03-22T23:45:09.318Z,3.70
2019-03-22T23:47:39.718Z,3.70
2019-03-22T23:50:17.450Z,3.70
2019-03-22T23:52:47.927Z,3.60
2019-03-22T23:55:18.361Z,3.60
2019-03-22T23:57:48.890Z,3.60
